createdAt,value
2023-02-25T00:02:15.754Z,96716.88
2023-02-25T00:04:42.460Z,96715.94
2023-02-25T00:07:09.489Z,96715.44
2023-02-25T00:09:36.206Z,96711.53
2023-02-25T00:12:02.825Z,96718.25
2023-02-25T00:14:29.640Z,96713.72
2023-02-25T00:16:56.376Z,96711.63
2023-02-25T00:19:24.253Z,96708.59
2023-02-25T00:21:51.014Z,96727.00
2023-02-25T00:24:17.826Z,96737.34
2023-02-25T00:26:45.265Z,96745.16
2023-02-25T00:29:11.971Z,96747.72
2023-02-25T00:31:38.756Z,96761.22
2023-02-25T00:34:05.493Z,96783.25
2023-02-25T00:36:32.091Z,96796.88
2023-02-25T00:38:58.667Z,96815.41
2023-02-25T00:41:28.683Z,96818.72
2023-02-25T00:43:58.634Z,96823.91
2023-02-25T00:46:26.732Z,96832.25
2023-02-25T00:48:53.675Z,96831.44
2023-02-25T00:51:25.389Z,96836.50
2023-02-25T00:53:53.338Z,96844.84
2023-02-25T00:56:20.755Z,96843.25
2023-02-25T00:58:49.540Z,96856.03
2023-02-25T01:01:27.100Z,96864.38
2023-02-25T01:03:56.595Z,96863.72
2023-02-25T01:06:25.194Z,96873.84
2023-02-25T01:08:52.031Z,96885.13
2023-02-25T01:11:24.730Z,96886.50
2023-02-25T01:13:51.365Z,96903.59
2023-02-25T01:16:23.000Z,96917.75
2023-02-25T01:18:52.889Z,96914.97
2023-02-25T01:21:25.714Z,96913.00
2023-02-25T01:23:58.839Z,96923.69
2023-02-25T01:26:27.432Z,96913.06
2023-02-25T01:28:54.130Z,96909.28
2023-02-25T01:31:29.527Z,96914.41
2023-02-25T01:34:02.054Z,96907.84
2023-02-25T01:36:30.944Z,96908.09
2023-02-25T01:38:58.242Z,96906.94
2023-02-25T01:41:26.182Z,96911.50
2023-02-25T01:44:14.196Z,96903.81
2023-02-25T01:46:43.172Z,96910.66
2023-02-25T01:49:16.160Z,96904.75
2023-02-25T01:51:46.082Z,96909.72
2023-02-25T01:54:14.726Z,96906.38
2023-02-25T01:56:44.254Z,96902.88
2023-02-25T01:59:12.224Z,96908.91
2023-02-25T02:01:40.286Z,96910.72
2023-02-25T02:04:10.657Z,96915.59
2023-02-25T02:06:40.832Z,96914.31
2023-02-25T02:09:13.408Z,96923.47
2023-02-25T02:11:40.039Z,96928.00
2023-02-25T02:14:09.245Z,96934.69
2023-02-25T02:16:52.176Z,96946.41
2023-02-25T02:19:35.684Z,96952.41
2023-02-25T02:22:03.319Z,96941.09
2023-02-25T02:24:45.968Z,96946.81
2023-02-25T02:27:50.337Z,96951.53
2023-02-25T02:30:47.892Z,96945.75
2023-02-25T02:33:36.765Z,96950.22
2023-02-25T02:36:15.110Z,96959.53
2023-02-25T02:39:00.020Z,96957.75
2023-02-25T02:41:36.574Z,96960.75
2023-02-25T02:44:25.062Z,96967.03
2023-02-25T02:46:59.318Z,96963.63
2023-02-25T02:49:35.975Z,96962.38
2023-02-25T02:52:07.056Z,96953.94
2023-02-25T02:54:37.586Z,96959.00
2023-02-25T02:57:08.839Z,96971.66
2023-02-25T02:59:43.038Z,96964.47
2023-02-25T03:02:15.917Z,96965.03
2023-02-25T03:04:45.492Z,96960.88
2023-02-25T03:07:15.055Z,96955.66
2023-02-25T03:09:52.058Z,96960.88
2023-02-25T03:12:21.894Z,96964.66
2023-02-25T03:14:48.498Z,96955.22
2023-02-25T03:17:21.547Z,96961.84
2023-02-25T03:19:55.648Z,96968.47
2023-02-25T03:22:29.859Z,96975.88
2023-02-25T03:24:56.435Z,96970.88
2023-02-25T03:27:25.502Z,96977.94
2023-02-25T03:29:53.437Z,96974.31
2023-02-25T03:32:20.609Z,96983.13
2023-02-25T03:34:50.861Z,96985.78
2023-02-25T03:37:22.653Z,96992.19
2023-02-25T03:39:55.711Z,96992.75
2023-02-25T03:42:29.669Z,96992.00
2023-02-25T03:45:01.402Z,96997.03
2023-02-25T03:47:30.773Z,96994.16
2023-02-25T03:50:08.531Z,96997.41
2023-02-25T03:52:35.751Z,96992.63
2023-02-25T03:55:03.119Z,96987.81
2023-02-25T03:57:39.854Z,96995.84
2023-02-25T04:00:17.412Z,96994.06
2023-02-25T04:02:46.505Z,96999.91
2023-02-25T04:05:13.900Z,96999.97
2023-02-25T04:07:40.547Z,97002.63
2023-02-25T04:10:10.333Z,96984.47
2023-02-25T04:12:36.934Z,96989.56
2023-02-25T04:15:06.046Z,97000.03
2023-02-25T04:17:33.327Z,97001.13
2023-02-25T04:19:59.972Z,97006.13
2023-02-25T04:22:27.183Z,97010.16
2023-02-25T04:24:53.790Z,97005.28
2023-02-25T04:27:20.596Z,97016.78
2023-02-25T04:29:47.181Z,97011.34
2023-02-25T04:32:14.105Z,97004.13
2023-02-25T04:34:40.832Z,97014.56
2023-02-25T04:37:08.774Z,97013.38
2023-02-25T04:39:35.682Z,97010.78
2023-02-25T04:42:02.638Z,97009.16
2023-02-25T04:44:29.236Z,97012.63
2023-02-25T04:46:56.155Z,97012.00
2023-02-25T04:49:23.420Z,97012.19
2023-02-25T04:51:51.576Z,97014.78
2023-02-25T04:54:20.660Z,97012.59
2023-02-25T04:56:48.236Z,97015.19
2023-02-25T04:59:16.158Z,97009.78
2023-02-25T05:01:43.448Z,97013.78
2023-02-25T05:04:10.176Z,97003.34
2023-02-25T05:06:36.890Z,97021.22
2023-02-25T05:09:03.924Z,97021.41
2023-02-25T05:11:30.740Z,97019.81
2023-02-25T05:13:57.413Z,97016.22
2023-02-25T05:16:25.697Z,97016.19
2023-02-25T05:18:53.406Z,97013.78
2023-02-25T05:21:23.211Z,97031.25
2023-02-25T05:23:52.800Z,97040.50
2023-02-25T05:26:22.366Z,97050.13
2023-02-25T05:28:52.523Z,97060.00
2023-02-25T05:31:19.992Z,97063.66
2023-02-25T05:33:46.655Z,97052.38
2023-02-25T05:36:15.428Z,97061.66
2023-02-25T05:38:42.522Z,97059.44
2023-02-25T05:41:10.048Z,97057.22
2023-02-25T05:43:38.428Z,97057.44
2023-02-25T05:46:11.565Z,97049.81
2023-02-25T05:48:39.491Z,97052.22
2023-02-25T05:51:11.368Z,97050.63
2023-02-25T05:53:38.042Z,97054.03
2023-02-25T05:56:07.432Z,97062.66
2023-02-25T05:58:34.577Z,97075.91
2023-02-25T06:01:10.679Z,97058.25
2023-02-25T06:03:39.074Z,97072.50
2023-02-25T06:06:07.081Z,97073.72
2023-02-25T06:08:34.416Z,97070.91
2023-02-25T06:11:02.150Z,97076.53
2023-02-25T06:13:28.856Z,97078.94
2023-02-25T06:15:55.478Z,97091.38
2023-02-25T06:18:22.103Z,97080.94
2023-02-25T06:20:48.854Z,97090.59
2023-02-25T06:23:15.675Z,97086.38
2023-02-25T06:25:42.255Z,97094.19
2023-02-25T06:28:08.895Z,97100.25
2023-02-25T06:30:35.554Z,97103.03
2023-02-25T06:33:02.239Z,97108.69
2023-02-25T06:35:28.823Z,97117.91
2023-02-25T06:37:56.619Z,97120.94
2023-02-25T06:40:23.396Z,97119.13
2023-02-25T06:42:50.010Z,97118.53
2023-02-25T06:45:16.759Z,97126.56
2023-02-25T06:47:43.445Z,97127.59
2023-02-25T06:50:11.104Z,97130.38
2023-02-25T06:52:37.872Z,97121.53
2023-02-25T06:55:06.789Z,97134.41
2023-02-25T06:57:34.190Z,97129.19
2023-02-25T07:00:00.826Z,97139.03
2023-02-25T07:02:27.735Z,97141.25
2023-02-25T07:04:54.986Z,97144.88
2023-02-25T07:07:22.333Z,97151.69
2023-02-25T07:09:49.071Z,97156.53
2023-02-25T07:12:15.663Z,97145.88
2023-02-25T07:14:45.868Z,97155.31
2023-02-25T07:17:12.462Z,97163.34
2023-02-25T07:19:39.076Z,97152.69
2023-02-25T07:22:05.669Z,97154.09
2023-02-25T07:24:32.305Z,97155.69
2023-02-25T07:26:58.902Z,97156.09
2023-02-25T07:29:25.502Z,97146.84
2023-02-25T07:31:52.326Z,97155.50
2023-02-25T07:34:19.193Z,97147.44
2023-02-25T07:36:45.804Z,97147.44
2023-02-25T07:39:12.590Z,97152.22
2023-02-25T07:41:39.189Z,97145.34
2023-02-25T07:44:06.445Z,97139.28
2023-02-25T07:46:33.811Z,97143.69
2023-02-25T07:49:00.472Z,97141.81
2023-02-25T07:51:28.069Z,97134.34
2023-02-25T07:53:57.478Z,97141.72
2023-02-25T07:56:26.348Z,97142.53
2023-02-25T07:58:53.081Z,97141.09
2023-02-25T08:01:31.585Z,97143.06
2023-02-25T08:04:00.636Z,97148.25
2023-02-25T08:06:28.011Z,97143.19
2023-02-25T08:08:55.513Z,97138.09
2023-02-25T08:11:24.758Z,97130.63
2023-02-25T08:13:51.835Z,97136.19
2023-02-25T08:16:20.536Z,97123.00
2023-02-25T08:18:48.052Z,97135.03
2023-02-25T08:21:18.742Z,97135.19
2023-02-25T08:23:45.343Z,97137.22
2023-02-25T08:26:12.086Z,97153.50
2023-02-25T08:28:39.652Z,97151.75
2023-02-25T08:31:11.368Z,97152.16
2023-02-25T08:33:40.003Z,97157.16
2023-02-25T08:36:09.676Z,97165.19
2023-02-25T08:38:37.928Z,97163.31
2023-02-25T08:41:06.110Z,97163.53
2023-02-25T08:43:33.247Z,97165.41
2023-02-25T08:46:01.283Z,97170.22
2023-02-25T08:48:28.194Z,97163.16
2023-02-25T08:50:55.659Z,97160.50
2023-02-25T08:53:23.400Z,97161.81
2023-02-25T08:55:51.079Z,97172.44
2023-02-25T08:58:17.645Z,97176.13
2023-02-25T09:00:44.254Z,97185.25
2023-02-25T09:03:10.837Z,97178.31
2023-02-25T09:05:38.116Z,97173.63
2023-02-25T09:08:05.019Z,97163.50
2023-02-25T09:10:48.373Z,97159.06
2023-02-25T09:13:17.356Z,97176.06
2023-02-25T09:15:44.011Z,97171.06
2023-02-25T09:18:11.844Z,97171.28
2023-02-25T09:20:39.013Z,97164.72
2023-02-25T09:23:05.693Z,97170.88
2023-02-25T09:25:32.329Z,97165.91
2023-02-25T09:27:58.925Z,97178.53
2023-02-25T09:30:26.516Z,97179.09
2023-02-25T09:32:53.402Z,97180.47
2023-02-25T09:35:20.184Z,97173.06
2023-02-25T09:37:46.799Z,97162.84
2023-02-25T09:40:18.792Z,97169.84
2023-02-25T09:43:07.378Z,97173.56
2023-02-25T09:45:34.777Z,97164.31
2023-02-25T09:48:10.634Z,97165.81
2023-02-25T09:50:43.382Z,97167.66
2023-02-25T09:53:15.790Z,97173.63
2023-02-25T09:55:47.953Z,97160.94
2023-02-25T09:58:22.138Z,97168.50
2023-02-25T10:00:58.407Z,97167.19
2023-02-25T10:03:41.183Z,97169.41
2023-02-25T10:06:27.965Z,97179.72
2023-02-25T10:09:00.121Z,97176.09
2023-02-25T10:11:47.673Z,97171.50
2023-02-25T10:14:20.672Z,97169.53
2023-02-25T10:17:03.104Z,97156.59
2023-02-25T10:19:38.695Z,97162.28
2023-02-25T10:22:30.936Z,97164.13
2023-02-25T10:25:05.358Z,97158.66
2023-02-25T10:27:39.611Z,97167.31
2023-02-25T10:30:14.405Z,97164.28
2023-02-25T10:32:43.561Z,97154.34
2023-02-25T10:35:23.858Z,97152.19
2023-02-25T10:37:50.501Z,97146.88
2023-02-25T10:40:21.596Z,97144.88
2023-02-25T10:42:51.423Z,97144.25
2023-02-25T10:45:25.179Z,97138.00
2023-02-25T10:48:03.917Z,97136.75
2023-02-25T10:50:44.834Z,97150.22
2023-02-25T10:53:17.504Z,97147.03
2023-02-25T10:55:44.079Z,97151.25
2023-02-25T10:58:31.853Z,97140.75
2023-02-25T11:00:59.979Z,97147.59
2023-02-25T11:03:30.379Z,97134.69
2023-02-25T11:06:23.388Z,97137.53
2023-02-25T11:08:52.450Z,97130.13
2023-02-25T11:11:24.346Z,97127.34
2023-02-25T11:13:55.911Z,97140.38
2023-02-25T11:16:27.244Z,97128.88
2023-02-25T11:19:00.118Z,97134.69
2023-02-25T11:21:32.655Z,97131.50
2023-02-25T11:24:02.781Z,97136.75
2023-02-25T11:26:33.689Z,97126.59
2023-02-25T11:29:13.977Z,97126.81
2023-02-25T11:31:43.224Z,97112.31
2023-02-25T11:34:28.693Z,97122.81
2023-02-25T11:36:55.320Z,97119.97
2023-02-25T11:39:26.375Z,97110.53
2023-02-25T11:41:55.645Z,97115.31
2023-02-25T11:44:31.720Z,97104.16
2023-02-25T11:47:03.166Z,97092.88
2023-02-25T11:50:00.338Z,97093.25
2023-02-25T11:52:35.987Z,97095.06
2023-02-25T11:55:19.277Z,97086.63
2023-02-25T11:58:16.468Z,97086.63
2023-02-25T12:01:00.688Z,97084.13
2023-02-25T12:04:02.435Z,97081.50
2023-02-25T12:06:48.742Z,97085.06
2023-02-25T12:09:45.860Z,97083.09
2023-02-25T12:12:28.776Z,97080.47
2023-02-25T12:15:24.123Z,97079.59
2023-02-25T12:18:21.124Z,97072.19
2023-02-25T12:21:08.976Z,97072.66
2023-02-25T12:24:10.705Z,97071.72
2023-02-25T12:26:53.552Z,97068.66
2023-02-25T12:29:40.036Z,97067.63
2023-02-25T12:32:22.829Z,97072.16
2023-02-25T12:35:23.919Z,97074.94
2023-02-25T12:38:12.292Z,97063.81
2023-02-25T12:40:59.528Z,97055.25
2023-02-25T12:43:47.736Z,97068.28
2023-02-25T12:46:31.635Z,97074.47
2023-02-25T12:49:28.681Z,97081.88
2023-02-25T12:52:18.003Z,97092.66
2023-02-25T12:54:59.873Z,97102.31
2023-02-25T12:57:34.362Z,97091.72
2023-02-25T13:00:16.897Z,97107.22
2023-02-25T13:03:15.556Z,97097.09
2023-02-25T13:06:20.885Z,97097.09
2023-02-25T13:08:59.363Z,97094.75
2023-02-25T13:12:10.089Z,97085.63
2023-02-25T13:14:46.814Z,97084.34
2023-02-25T13:17:39.802Z,97091.31
2023-02-25T13:20:21.637Z,97093.94
2023-02-25T13:23:03.452Z,97105.03
2023-02-25T13:25:46.260Z,97108.22
2023-02-25T13:28:29.045Z,97117.53
2023-02-25T13:31:05.716Z,97108.78
2023-02-25T13:33:53.370Z,97114.47
2023-02-25T13:36:36.374Z,97099.16
2023-02-25T13:39:33.347Z,97109.28
2023-02-25T13:42:30.545Z,97101.06
2023-02-25T13:45:27.693Z,97088.75
2023-02-25T13:48:24.567Z,97081.25
2023-02-25T13:50:51.219Z,97078.81
2023-02-25T13:53:36.310Z,97071.16
2023-02-25T13:56:26.814Z,97076.72
2023-02-25T13:59:21.829Z,97079.28
2023-02-25T14:01:59.515Z,97084.88
2023-02-25T14:04:44.637Z,97088.25
2023-02-25T14:07:23.594Z,97084.19
2023-02-25T14:10:00.725Z,97085.94
2023-02-25T14:12:44.372Z,97091.13
2023-02-25T14:15:28.885Z,97090.66
2023-02-25T14:18:03.775Z,97081.91
2023-02-25T14:20:32.476Z,97088.84
2023-02-25T14:23:07.760Z,97086.59
2023-02-25T14:25:42.422Z,97079.22
2023-02-25T14:28:35.227Z,97085.44
2023-02-25T14:31:01.882Z,97085.88
2023-02-25T14:33:52.612Z,97090.09
2023-02-25T14:36:50.875Z,97088.63
2023-02-25T14:39:47.979Z,97089.38
2023-02-25T14:42:36.535Z,97090.84
2023-02-25T14:45:31.778Z,97087.06
2023-02-25T14:48:06.196Z,97089.25
2023-02-25T14:51:03.527Z,97084.13
2023-02-25T14:53:54.982Z,97091.94
2023-02-25T14:56:52.090Z,97099.56
2023-02-25T14:59:33.933Z,97102.06
2023-02-25T15:02:15.859Z,97109.13
2023-02-25T15:04:56.420Z,97111.84
2023-02-25T15:07:45.509Z,97109.41
2023-02-25T15:10:29.936Z,97109.13
2023-02-25T15:13:29.824Z,97118.16
2023-02-25T15:16:32.372Z,97113.00
2023-02-25T15:19:19.528Z,97105.47
2023-02-25T15:21:49.198Z,97110.00
2023-02-25T15:24:39.725Z,97119.03
2023-02-25T15:27:36.869Z,97108.69
2023-02-25T15:30:06.873Z,97113.34
2023-02-25T15:32:49.871Z,97113.16
2023-02-25T15:35:23.367Z,97120.72
2023-02-25T15:37:49.957Z,97123.63
2023-02-25T15:40:16.536Z,97131.16
2023-02-25T15:42:46.871Z,97127.59
2023-02-25T15:45:28.980Z,97122.59
2023-02-25T15:48:11.054Z,97117.16
2023-02-25T15:50:53.293Z,97118.34
2023-02-25T15:53:23.313Z,97102.81
2023-02-25T15:55:52.030Z,97124.81
2023-02-25T15:58:43.014Z,97127.69
2023-02-25T16:01:28.471Z,97131.41
2023-02-25T16:03:55.494Z,97127.97
2023-02-25T16:06:33.118Z,97131.59
2023-02-25T16:09:00.786Z,97128.44
2023-02-25T16:11:49.510Z,97124.50
2023-02-25T16:14:22.869Z,97130.97
2023-02-25T16:16:57.426Z,97141.88
2023-02-25T16:19:28.704Z,97124.38
2023-02-25T16:22:00.586Z,97141.53
2023-02-25T16:24:28.120Z,97147.59
2023-02-25T16:27:06.423Z,97154.88
2023-02-25T16:29:55.736Z,97152.09
2023-02-25T16:32:29.372Z,97166.97
2023-02-25T16:35:12.677Z,97165.22
2023-02-25T16:38:00.704Z,97161.22
2023-02-25T16:40:31.780Z,97168.84
2023-02-25T16:42:59.138Z,97166.66
2023-02-25T16:45:33.455Z,97163.22
2023-02-25T16:48:06.182Z,97170.28
2023-02-25T16:50:35.086Z,97174.69
2023-02-25T16:53:04.050Z,97179.19
2023-02-25T16:55:39.016Z,97198.50
2023-02-25T16:58:22.809Z,97193.06
2023-02-25T17:01:00.000Z,97203.91
2023-02-25T17:03:33.068Z,97204.91
2023-02-25T17:06:14.531Z,97209.56
2023-02-25T17:08:45.362Z,97230.06
2023-02-25T17:11:17.444Z,97236.13
2023-02-25T17:13:45.420Z,97249.94
2023-02-25T17:16:28.366Z,97260.84
2023-02-25T17:18:58.762Z,97255.41
2023-02-25T17:21:29.718Z,97260.44
2023-02-25T17:23:58.434Z,97265.09
2023-02-25T17:26:25.491Z,97270.72
2023-02-25T17:28:55.964Z,97283.78
2023-02-25T17:31:26.958Z,97281.56
2023-02-25T17:33:57.610Z,97286.78
2023-02-25T17:36:27.788Z,97285.38
2023-02-25T17:38:58.836Z,97285.56
2023-02-25T17:41:25.934Z,97293.97
2023-02-25T17:43:52.958Z,97289.56
2023-02-25T17:46:31.248Z,97292.97
2023-02-25T17:49:02.551Z,97295.38
2023-02-25T17:51:33.563Z,97297.97
2023-02-25T17:54:07.607Z,97291.72
2023-02-25T17:56:35.720Z,97297.19
2023-02-25T17:59:35.623Z,97304.59
2023-02-25T18:02:03.815Z,97299.56
2023-02-25T18:04:40.621Z,97303.16
2023-02-25T18:07:38.146Z,97316.63
2023-02-25T18:10:05.253Z,97322.81
2023-02-25T18:12:35.233Z,97314.78
2023-02-25T18:15:02.862Z,97324.22
2023-02-25T18:17:33.982Z,97329.25
2023-02-25T18:20:05.384Z,97327.44
2023-02-25T18:22:37.644Z,97323.06
2023-02-25T18:25:08.328Z,97317.59
2023-02-25T18:27:37.808Z,97321.22
2023-02-25T18:30:18.769Z,97318.81
2023-02-25T18:32:46.125Z,97322.00
2023-02-25T18:35:12.774Z,97320.63
2023-02-25T18:37:40.136Z,97330.00
2023-02-25T18:40:07.910Z,97320.97
2023-02-25T18:42:34.535Z,97329.66
2023-02-25T18:45:01.256Z,97334.47
2023-02-25T18:47:29.896Z,97333.63
2023-02-25T18:49:56.617Z,97331.22
2023-02-25T18:52:25.218Z,97337.47
2023-02-25T18:54:51.905Z,97334.44
2023-02-25T18:57:23.084Z,97338.03
2023-02-25T18:59:51.032Z,97341.69
2023-02-25T19:02:34.966Z,97346.09
2023-02-25T19:05:02.943Z,97353.16
2023-02-25T19:07:34.113Z,97353.47
2023-02-25T19:10:05.897Z,97358.94
2023-02-25T19:12:34.610Z,97356.16
2023-02-25T19:15:06.506Z,97358.38
2023-02-25T19:17:36.845Z,97364.91
2023-02-25T19:20:07.326Z,97360.72
2023-02-25T19:22:34.090Z,97358.66
2023-02-25T19:25:00.738Z,97355.63
2023-02-25T19:27:29.098Z,97368.47
2023-02-25T19:29:58.150Z,97373.25
2023-02-25T19:32:26.103Z,97365.44
2023-02-25T19:34:52.735Z,97371.25
2023-02-25T19:37:20.774Z,97378.72
2023-02-25T19:39:47.726Z,97375.44
2023-02-25T19:42:15.531Z,97375.03
2023-02-25T19:44:42.161Z,97377.44
2023-02-25T19:47:08.752Z,97381.84
2023-02-25T19:49:35.457Z,97379.44
2023-02-25T19:52:02.084Z,97378.06
2023-02-25T19:54:28.711Z,97381.28
2023-02-25T19:56:55.326Z,97380.84
2023-02-25T19:59:21.912Z,97382.44
2023-02-25T20:01:49.660Z,97388.88
2023-02-25T20:04:16.664Z,97390.50
2023-02-25T20:06:43.406Z,97393.72
2023-02-25T20:09:12.686Z,97383.84
2023-02-25T20:11:39.591Z,97388.66
2023-02-25T20:14:07.117Z,97392.00
2023-02-25T20:16:34.628Z,97392.03
2023-02-25T20:19:01.484Z,97390.38
2023-02-25T20:21:28.296Z,97389.03
2023-02-25T20:23:58.216Z,97394.81
2023-02-25T20:26:28.537Z,97395.28
2023-02-25T20:28:56.025Z,97399.63
2023-02-25T20:31:23.918Z,97397.94
2023-02-25T20:33:53.427Z,97403.91
2023-02-25T20:36:23.139Z,97396.13
2023-02-25T20:39:13.227Z,97401.31
2023-02-25T20:41:40.839Z,97400.88
2023-02-25T20:44:08.335Z,97402.25
2023-02-25T20:46:35.800Z,97398.22
2023-02-25T20:49:03.927Z,97395.84
2023-02-25T20:51:31.057Z,97403.44
2023-02-25T20:53:58.036Z,97402.19
2023-02-25T20:56:26.968Z,97402.59
2023-02-25T20:58:54.840Z,97404.00
2023-02-25T21:01:22.114Z,97402.47
2023-02-25T21:03:48.896Z,97402.28
2023-02-25T21:06:16.520Z,97403.03
2023-02-25T21:08:43.261Z,97403.56
2023-02-25T21:11:09.853Z,97415.81
2023-02-25T21:13:36.536Z,97413.69
2023-02-25T21:16:06.107Z,97406.44
2023-02-25T21:18:33.782Z,97420.66
2023-02-25T21:21:03.922Z,97426.31
2023-02-25T21:23:31.110Z,97422.28
2023-02-25T21:25:58.335Z,97419.28
2023-02-25T21:28:25.044Z,97421.63
2023-02-25T21:30:52.476Z,97427.88
2023-02-25T21:33:19.146Z,97433.31
2023-02-25T21:35:52.109Z,97427.06
2023-02-25T21:38:19.545Z,97423.69
2023-02-25T21:40:47.159Z,97424.25
2023-02-25T21:43:14.899Z,97419.63
2023-02-25T21:45:52.216Z,97417.38
2023-02-25T21:48:19.489Z,97424.00
2023-02-25T21:50:46.392Z,97427.81
2023-02-25T21:53:13.276Z,97420.59
2023-02-25T21:55:40.106Z,97417.25
2023-02-25T21:58:06.710Z,97419.63
2023-02-25T22:00:33.346Z,97412.38
2023-02-25T22:03:00.434Z,97419.19
2023-02-25T22:05:27.347Z,97420.34
2023-02-25T22:07:53.928Z,97416.75
2023-02-25T22:10:21.401Z,97418.97
2023-02-25T22:12:48.817Z,97416.75
2023-02-25T22:15:15.443Z,97420.41
2023-02-25T22:17:42.349Z,97413.66
2023-02-25T22:20:09.800Z,97418.88
2023-02-25T22:22:37.250Z,97417.09
2023-02-25T22:25:05.401Z,97425.69
2023-02-25T22:27:32.150Z,97429.91
2023-02-25T22:29:58.817Z,97423.91
2023-02-25T22:32:25.999Z,97422.72
2023-02-25T22:34:52.648Z,97423.69
2023-02-25T22:37:19.270Z,97419.22
2023-02-25T22:39:45.922Z,97411.66
2023-02-25T22:42:12.594Z,97419.22
2023-02-25T22:44:39.290Z,97421.22
2023-02-25T22:47:05.937Z,97420.84
2023-02-25T22:49:32.557Z,97419.63
2023-02-25T22:51:59.166Z,97418.19
2023-02-25T22:54:25.870Z,97415.97
2023-02-25T22:56:52.546Z,97418.38
2023-02-25T22:59:19.256Z,97419.81
2023-02-25T23:01:45.924Z,97423.16
2023-02-25T23:04:12.557Z,97425.38
2023-02-25T23:06:44.407Z,97421.41
2023-02-25T23:09:13.562Z,97424.00
2023-02-25T23:11:42.379Z,97437.25
2023-02-25T23:14:09.526Z,97439.84
2023-02-25T23:16:41.175Z,97439.25
2023-02-25T23:19:10.820Z,97436.25
2023-02-25T23:21:41.251Z,97436.88
2023-02-25T23:24:09.307Z,97440.88
2023-02-25T23:26:40.089Z,97432.84
2023-02-25T23:29:08.620Z,97437.69
2023-02-25T23:31:38.202Z,97433.44
2023-02-25T23:34:08.961Z,97442.09
2023-02-25T23:36:37.333Z,97442.47
2023-02-25T23:39:05.626Z,97443.63
2023-02-25T23:41:35.342Z,97440.22
2023-02-25T23:44:02.420Z,97440.28
2023-02-25T23:46:31.738Z,97433.25
2023-02-25T23:49:00.860Z,97444.13
2023-02-25T23:51:28.701Z,97439.59
2023-02-25T23:53:57.304Z,97443.94
2023-02-25T23:56:25.065Z,97438.63
2023-02-25T23:58:53.864Z,97437.00
